Portada
METAR-TAF:

METAR-TAF

Aeropuertos :

Aeropuerto Internacional Mohamed Boudiaf

Constantina, Argelia

latitud: 36-17N, longitud: 006-37E, altitud: 694 m

Observación

El informe se hizo hace 34 minutos, a las 13:00 UTC
Viento 9 kt del norte-noreste, variando entre norte-noroeste y este
Temperatura 26°C
Humedad 37%
Presión 1022 hPa
Visibilidad 10 km o más
Escasas nubes a una altura de 3000 ft
Cielo nuboso a una altura de 20000 ft

METAR: DABC 131300Z 02009KT 340V080 9999 FEW030 BKN200 26/10 Q1022

Hora: 14:34 (13:34 UTC)

Pronóstico

El informe se hizo hace 2 horas y 34 minutos, a las 11:00 UTC
Pronóstico válido del 13 a las 12 UTC al 14 a las 12 UTC
Viento 8 kt del oeste
Visibilidad 10 km o más
Nubes dispersas a una altura de 2600 ft
Temporalmente
del 13 a las 12 UTC al 13 a las 19 UTC
Viento 14 kt del norte

TAF: DABC 131100Z 1312/1412 28008KT 9999 SCT026 TEMPO 1312/1319 36014KT

Observaciones y pronósticos meteorológicos de más de 4000 aeropuertos (mensajes METAR y TAF).

Los puntos amarillos y rojos representan las estaciones disponibles.

Ponga el ratón en el punto deseado para ver el nombre de la estación.

Haga clic para ver las observaciones y los pronósticos meteorológicos.

Para cambiar el mapa : haga clic en los botones verdes con una cruz de color negro para hacer un zoom, en el botón verde con un guión para alejar o en las flechas verdes para mapas adyacentes.


METAR-TAF: